Atyla — YJTM7 — position and weather

sailwx.info

Track history (hours):
 
Tides and Currents Weather Stations Pressure Air Temp Water Temp Dewpoint Dewpoint Depression Visibility Wind Speed Wind Dir Waves Ship Positions

Atyla

Ship's website: http://atylaship.com

Last reported at 2017-Sep-16 15:24 UTC. Time now 2017-Sep-23 09:32 UTC.
Position N 43°16' W 002°57'.

Length 24 m.

Type: Sailing vessel. MMSI: 577192000.

Date/timePositionNaut miles runAvg speedWind from/ knotsBaromVisibWave heightAir tempDewpointWater temp
2017-Sep-16 15:24N 43°16' W 002°57'1 2.4
2017-Sep-16 14:56N 43°17' W 002°58'2 5.5
2017-Sep-16 14:30N 43°19' W 002°60'3 5.3
2017-Sep-16 14:00N 43°21' W 003°02'3 5.6
2017-Sep-16 13:30N 43°23' W 003°05'3 5.7
2017-Sep-16 13:00N 43°24' W 003°01'2 4.8
2017-Sep-16 12:30N 43°26' W 002°59'  
2017-Sep-12 14:34N 45°33' W 001°08'0 4.9
2017-Sep-12 14:30N 45°33' W 001°08'3 5.7
2017-Sep-12 14:00N 45°35' W 001°05'2 3.4
2017-Sep-12 13:29N 45°33' W 001°04'0 0.0
2017-Sep-12 12:50N 45°33' W 001°04'0 0.0
2017-Sep-12 12:26N 45°33' W 001°04'0 0.0
2017-Sep-12 11:59N 45°33' W 001°04'0 0.0
2017-Sep-12 11:20N 45°33' W 001°04'0 0.0
2017-Sep-12 10:53N 45°33' W 001°04'0 0.0
2017-Sep-12 10:17N 45°33' W 001°04'0 0.0
2017-Sep-12 09:59N 45°33' W 001°04'0 0.0
2017-Sep-12 09:29N 45°33' W 001°04'0 0.0
2017-Sep-12 08:59N 45°33' W 001°04'0 0.0
2017-Sep-12 08:29N 45°33' W 001°04'0 0.0
2017-Sep-12 07:50N 45°33' W 001°04'0 0.0
2017-Sep-12 07:29N 45°33' W 001°04'0 0.0
2017-Sep-12 06:59N 45°33' W 001°04'0 0.0
2017-Sep-12 06:29N 45°33' W 001°04'0 0.0
2017-Sep-12 05:53N 45°33' W 001°04'0 0.0
2017-Sep-12 05:29N 45°33' W 001°04'0 0.0
2017-Sep-12 04:26N 45°33' W 001°04'0 0.0
2017-Sep-12 03:56N 45°33' W 001°04'0 0.0
2017-Sep-12 03:29N 45°33' W 001°04'0 0.0
2017-Sep-12 02:59N 45°33' W 001°04'0 0.0
2017-Sep-12 02:26N 45°33' W 001°04'0 0.0
2017-Sep-12 01:59N 45°33' W 001°04'0 0.0
2017-Sep-12 01:29N 45°33' W 001°04'0 0.0
2017-Sep-12 00:59N 45°33' W 001°04'0 0.0
2017-Sep-12 00:29N 45°33' W 001°04'0 0.0
2017-Sep-11 23:56N 45°33' W 001°04'0 0.0
2017-Sep-11 23:26N 45°33' W 001°04'0 0.0
2017-Sep-11 22:53N 45°33' W 001°04'0 0.0
2017-Sep-11 22:29N 45°33' W 001°04'0 0.0
2017-Sep-11 21:47N 45°33' W 001°04'0 0.0
2017-Sep-11 21:29N 45°33' W 001°04'0 0.0
2017-Sep-11 20:56N 45°33' W 001°04'0 0.0
2017-Sep-11 20:26N 45°33' W 001°04'0 0.0
2017-Sep-11 19:59N 45°33' W 001°04'0 0.0
2017-Sep-11 19:26N 45°33' W 001°04'0 0.0
2017-Sep-11 18:56N 45°33' W 001°04'0 0.0
2017-Sep-11 18:29N 45°33' W 001°04'0 0.0
2017-Sep-11 17:50N 45°33' W 001°04'0 0.0
2017-Sep-11 17:20N 45°33' W 001°04'0 0.0
2017-Sep-11 16:53N 45°33' W 001°04'0 0.0
2017-Sep-11 16:29N 45°33' W 001°04'0 0.0
2017-Sep-11 15:47N 45°33' W 001°04'1 1.4
2017-Sep-11 14:55N 45°33' W 001°02'2 4.8
2017-Sep-11 14:30N 45°32' W 000°60'  
2017-Sep-08 14:04N 45°29' W 000°57'1 9.9
2017-Sep-08 14:00N 45°30' W 000°57'5 9.9
2017-Sep-08 13:30N 45°33' W 001°02'2 4.0
2017-Sep-08 13:00N 45°35' W 001°03'2 4.3
2017-Sep-08 12:30N 45°37' W 001°05'  
Track history (hours):
 
Tides and Currents Weather Stations Pressure Air Temp Water Temp Dewpoint Dewpoint Depression Visibility Wind Speed Wind Dir Waves Ship Positions

Atyla

Ship's website: http://atylaship.com

Last reported at 2017-Sep-16 15:24 UTC. Time now 2017-Sep-23 09:32 UTC.
Position N 43°16' W 002°57'.

Length 24 m.

Type: Sailing vessel. MMSI: 577192000.

Date/timePositionNaut miles runAvg speedWind from/ knotsBaromVisibWave heightAir tempDewpointWater temp
2017-Sep-16 15:24N 43°16' W 002°57'1 2.4
2017-Sep-16 14:56N 43°17' W 002°58'2 5.5
2017-Sep-16 14:30N 43°19' W 002°60'3 5.3
2017-Sep-16 14:00N 43°21' W 003°02'3 5.6
2017-Sep-16 13:30N 43°23' W 003°05'3 5.7
2017-Sep-16 13:00N 43°24' W 003°01'2 4.8
2017-Sep-16 12:30N 43°26' W 002°59'  
2017-Sep-12 14:34N 45°33' W 001°08'0 4.9
2017-Sep-12 14:30N 45°33' W 001°08'3 5.7
2017-Sep-12 14:00N 45°35' W 001°05'2 3.4
2017-Sep-12 13:29N 45°33' W 001°04'0 0.0
2017-Sep-12 12:50N 45°33' W 001°04'0 0.0
2017-Sep-12 12:26N 45°33' W 001°04'0 0.0
2017-Sep-12 11:59N 45°33' W 001°04'0 0.0
2017-Sep-12 11:20N 45°33' W 001°04'0 0.0
2017-Sep-12 10:53N 45°33' W 001°04'0 0.0
2017-Sep-12 10:17N 45°33' W 001°04'0 0.0
2017-Sep-12 09:59N 45°33' W 001°04'0 0.0
2017-Sep-12 09:29N 45°33' W 001°04'0 0.0
2017-Sep-12 08:59N 45°33' W 001°04'0 0.0
2017-Sep-12 08:29N 45°33' W 001°04'0 0.0
2017-Sep-12 07:50N 45°33' W 001°04'0 0.0
2017-Sep-12 07:29N 45°33' W 001°04'0 0.0
2017-Sep-12 06:59N 45°33' W 001°04'0 0.0
2017-Sep-12 06:29N 45°33' W 001°04'0 0.0
2017-Sep-12 05:53N 45°33' W 001°04'0 0.0
2017-Sep-12 05:29N 45°33' W 001°04'0 0.0
2017-Sep-12 04:26N 45°33' W 001°04'0 0.0
2017-Sep-12 03:56N 45°33' W 001°04'0 0.0
2017-Sep-12 03:29N 45°33' W 001°04'0 0.0
2017-Sep-12 02:59N 45°33' W 001°04'0 0.0
2017-Sep-12 02:26N 45°33' W 001°04'0 0.0
2017-Sep-12 01:59N 45°33' W 001°04'0 0.0
2017-Sep-12 01:29N 45°33' W 001°04'0 0.0
2017-Sep-12 00:59N 45°33' W 001°04'0 0.0
2017-Sep-12 00:29N 45°33' W 001°04'0 0.0
2017-Sep-11 23:56N 45°33' W 001°04'0 0.0
2017-Sep-11 23:26N 45°33' W 001°04'0 0.0
2017-Sep-11 22:53N 45°33' W 001°04'0 0.0
2017-Sep-11 22:29N 45°33' W 001°04'0 0.0
2017-Sep-11 21:47N 45°33' W 001°04'0 0.0
2017-Sep-11 21:29N 45°33' W 001°04'0 0.0
2017-Sep-11 20:56N 45°33' W 001°04'0 0.0
2017-Sep-11 20:26N 45°33' W 001°04'0 0.0
2017-Sep-11 19:59N 45°33' W 001°04'0 0.0
2017-Sep-11 19:26N 45°33' W 001°04'0 0.0
2017-Sep-11 18:56N 45°33' W 001°04'0 0.0
2017-Sep-11 18:29N 45°33' W 001°04'0 0.0
2017-Sep-11 17:50N 45°33' W 001°04'0 0.0
2017-Sep-11 17:20N 45°33' W 001°04'0 0.0
2017-Sep-11 16:53N 45°33' W 001°04'0 0.0
2017-Sep-11 16:29N 45°33' W 001°04'0 0.0
2017-Sep-11 15:47N 45°33' W 001°04'1 1.4
2017-Sep-11 14:55N 45°33' W 001°02'2 4.8
2017-Sep-11 14:30N 45°32' W 000°60'  
2017-Sep-08 14:04N 45°29' W 000°57'1 9.9
2017-Sep-08 14:00N 45°30' W 000°57'5 9.9
2017-Sep-08 13:30N 45°33' W 001°02'2 4.0
2017-Sep-08 13:00N 45°35' W 001°03'2 4.3
2017-Sep-08 12:30N 45°37' W 001°05'  

Dump ship's entire track history